Time;durP1;ratioP1;P1;durP2;ratioP2;P2;SDS_P1;SDS_P2;PMS_P1;PMS_P2;Temp;Humidity;BMP_temperature;BMP_pressure;BME280_temperature;BME280_humidity;BME280_pressure;Samples;Min_cycle;Max_cycle;Signal;HPM_P1;HPM_P2
2022/10/24 00:02:05;;;;;;;2.20;0.50;;;16.90;97.30;;;;;;5128819;28;20618;-84
2022/10/24 00:04:36;;;;;;;1.37;0.67;;;16.80;97.30;;;;;;5129074;28;20658;-82
2022/10/24 00:07:05;;;;;;;1.43;0.53;;;16.80;97.50;;;;;;5129017;28;20615;-82
2022/10/24 00:09:33;;;;;;;0.50;0.40;;;16.80;98.00;;;;;;5128265;28;20769;-82
2022/10/24 00:12:00;;;;;;;1.33;0.77;;;16.70;97.90;;;;;;5128555;28;20642;-81
2022/10/24 00:14:27;;;;;;;0.60;0.40;;;16.60;97.90;;;;;;5128536;28;21224;-82
2022/10/24 00:16:54;;;;;;;0.67;0.40;;;16.70;98.20;;;;;;5128374;28;20636;-81
2022/10/24 00:19:21;;;;;;;0.40;0.33;;;;;;;;;;5128698;28;20647;-82
2022/10/24 00:21:48;;;;;;;0.80;0.43;;;16.50;98.60;;;;;;5128659;28;20611;-81
2022/10/24 00:24:16;;;;;;;1.53;0.60;;;16.50;98.80;;;;;;5128786;28;20723;-80
2022/10/24 00:26:43;;;;;;;3.37;0.67;;;16.50;99.00;;;;;;5128570;28;20683;-81
2022/10/24 00:29:11;;;;;;;4.90;1.30;;;16.60;98.30;;;;;;5128139;28;20742;-81
2022/10/24 00:31:39;;;;;;;0.40;0.40;;;16.50;98.20;;;;;;5128639;28;20607;-81
2022/10/24 00:34:06;;;;;;;1.07;0.50;;;16.50;98.50;;;;;;5128537;28;21195;-80
2022/10/24 00:36:32;;;;;;;1.73;1.23;;;16.50;98.90;;;;;;5128923;27;21064;-82
2022/10/24 00:38:59;;;;;;;0.73;0.47;;;16.30;98.70;;;;;;5128848;27;20717;-80
2022/10/24 00:41:33;;;;;;;1.20;0.60;;;16.40;98.90;;;;;;5131656;27;20606;-83
2022/10/24 00:44:22;;;;;;;0.40;0.30;;;16.70;99.20;;;;;;5132166;27;20668;-83
2022/10/24 00:46:52;;;;;;;1.23;0.90;;;16.30;99.10;;;;;;5131852;27;20656;-82
2022/10/24 00:49:24;;;;;;;1.70;0.60;;;16.70;99.70;;;;;;5132383;27;20712;-81
2022/10/24 00:51:55;;;;;;;0.50;0.50;;;16.30;99.90;;;;;;5132014;27;20621;-80
2022/10/24 00:54:22;;;;;;;2.00;0.50;;;16.20;99.20;;;;;;5131749;27;20622;-82
2022/10/24 00:56:58;;;;;;;0.50;0.40;;;16.30;99.80;;;;;;5125330;27;20623;-81
2022/10/24 00:59:26;;;;;;;0.90;0.30;;;16.10;99.60;;;;;;5123329;27;21250;-82
2022/10/24 01:01:54;;;;;;;0.50;0.30;;;16.00;99.80;;;;;;5131790;27;20607;-82
2022/10/24 01:04:20;;;;;;;2.30;0.87;;;16.10;99.90;;;;;;5126248;27;20758;-82
2022/10/24 01:06:58;;;;;;;0.70;0.70;;;16.10;99.90;;;;;;5109979;28;20603;-81
2022/10/24 01:09:40;;;;;;;1.10;0.77;;;16.10;99.90;;;;;;5111323;28;20659;-80
2022/10/24 01:12:20;;;;;;;0.60;0.50;;;16.10;99.50;;;;;;5110997;28;20616;-81
2022/10/24 01:14:55;;;;;;;0.70;0.53;;;16.10;99.90;;;;;;5111539;28;20623;-82
2022/10/24 01:17:29;;;;;;;1.20;1.03;;;16.10;99.60;;;;;;5125674;27;21186;-81
2022/10/24 01:20:36;;;;;;;0.40;0.40;;;16.10;99.60;;;;;;5131771;27;21244;-80
2022/10/24 01:23:12;;;;;;;1.47;0.93;;;16.10;99.40;;;;;;5094270;27;20630;-81
2022/10/24 01:25:47;;;;;;;1.37;0.40;;;16.20;99.30;;;;;;5131376;27;20610;-81
2022/10/24 01:28:18;;;;;;;0.70;0.60;;;16.10;99.00;;;;;;5131411;27;21163;-81
2022/10/24 01:30:51;;;;;;;0.70;0.70;;;16.20;99.70;;;;;;5131539;27;20711;-81
2022/10/24 01:33:24;;;;;;;0.80;0.67;;;16.10;99.00;;;;;;5131494;27;20614;-82
2022/10/24 01:35:56;;;;;;;2.63;0.60;;;16.50;99.20;;;;;;5131260;27;20618;-81
2022/10/24 01:38:28;;;;;;;0.63;0.57;;;16.10;99.10;;;;;;5131261;27;20658;-82
2022/10/24 01:40:59;;;;;;;1.20;0.90;;;16.10;99.20;;;;;;5131265;27;20645;-81
2022/10/24 01:43:30;;;;;;;0.93;0.80;;;16.10;99.40;;;;;;5131070;27;20709;-82
2022/10/24 01:46:02;;;;;;;0.60;0.40;;;16.10;98.90;;;;;;5131598;27;20665;-82
2022/10/24 01:48:33;;;;;;;0.80;0.80;;;16.10;99.10;;;;;;5130419;27;20611;-84
2022/10/24 01:51:03;;;;;;;1.67;0.80;;;16.10;99.20;;;;;;5130577;27;20659;-83
2022/10/24 01:53:31;;;;;;;1.10;0.73;;;16.00;99.80;;;;;;5130582;27;20610;-81
2022/10/24 01:55:59;;;;;;;1.83;0.70;;;16.00;99.60;;;;;;5131095;27;20615;-80
2022/10/24 01:58:26;;;;;;;0.40;0.40;;;16.00;99.70;;;;;;5113883;27;20599;-80
2022/10/24 02:00:58;;;;;;;0.50;0.50;;;16.10;99.40;;;;;;5130620;27;20603;-81
2022/10/24 02:03:31;;;;;;;1.20;0.57;;;16.10;99.70;;;;;;5130833;27;20618;-82
2022/10/24 02:06:03;;;;;;;2.10;0.67;;;16.10;99.70;;;;;;5113392;27;20644;-81
2022/10/24 02:08:34;;;;;;;1.27;0.93;;;16.00;99.90;;;;;;5109787;28;20616;-84
2022/10/24 02:11:04;;;;;;;1.40;1.30;;;16.00;99.90;;;;;;5109998;28;20647;-82
2022/10/24 02:13:36;;;;;;;0.50;0.50;;;16.00;99.90;;;;;;5109313;28;20600;-81
2022/10/24 02:16:04;;;;;;;0.40;0.20;;;16.00;99.90;;;;;;5113576;27;20661;-81
2022/10/24 02:18:33;;;;;;;2.30;0.80;;;15.90;99.90;;;;;;5129980;27;20616;-81
2022/10/24 02:21:12;;;;;;;0.90;0.50;;;15.80;99.90;;;;;;5130479;27;20661;-82
2022/10/24 02:23:45;;;;;;;0.60;0.60;;;15.80;99.90;;;;;;5130193;27;20599;-82
2022/10/24 02:26:19;;;;;;;0.30;0.30;;;15.90;99.90;;;;;;5130592;27;20663;-82
2022/10/24 02:28:50;;;;;;;0.77;0.60;;;15.90;99.90;;;;;;5130296;27;20615;-82
2022/10/24 02:31:20;;;;;;;0.50;0.33;;;15.90;99.90;;;;;;5130546;27;20650;-82
2022/10/24 02:33:51;;;;;;;1.83;0.63;;;15.90;99.90;;;;;;5130074;27;20968;-81
2022/10/24 02:36:22;;;;;;;1.17;0.97;;;15.20;99.70;;;;;;5129886;27;20618;-82
2022/10/24 02:38:52;;;;;;;0.73;0.60;;;15.90;99.90;;;;;;5130265;27;20603;-82
2022/10/24 02:41:24;;;;;;;0.80;0.70;;;16.00;99.90;;;;;;5130156;27;20607;-81
2022/10/24 02:43:53;;;;;;;1.33;0.50;;;16.00;99.80;;;;;;5130301;27;20676;-81
2022/10/24 02:46:21;;;;;;;0.40;0.30;;;16.00;99.90;;;;;;5129672;27;20660;-81
2022/10/24 02:48:55;;;;;;;2.20;0.60;;;16.00;99.90;;;;;;5129469;27;20603;-82
2022/10/24 02:51:26;;;;;;;1.27;0.63;;;16.00;99.90;;;;;;5129779;27;20969;-81
2022/10/24 02:53:54;;;;;;;0.60;0.60;;;15.90;99.90;;;;;;5129864;27;20698;-82
2022/10/24 02:56:21;;;;;;;0.50;0.50;;;15.90;99.90;;;;;;5127418;27;20623;-82
2022/10/24 02:58:48;;;;;;;0.43;0.43;;;15.80;99.90;;;;;;5115515;27;20611;-81
2022/10/24 03:01:15;;;;;;;1.03;0.60;;;;;;;;;;5129175;27;21246;-82
2022/10/24 03:03:42;;;;;;;0.70;0.70;;;15.80;99.90;;;;;;5129346;27;20675;-81
2022/10/24 03:06:10;;;;;;;1.20;0.70;;;15.80;99.90;;;;;;5110538;27;20612;-82
2022/10/24 03:08:37;;;;;;;1.70;0.80;;;15.70;99.90;;;;;;5109434;28;20695;-82
2022/10/24 03:11:04;;;;;;;1.60;0.90;;;15.70;99.90;;;;;;5109038;28;20762;-80
2022/10/24 03:13:31;;;;;;;0.83;0.77;;;15.60;99.90;;;;;;5109046;28;20764;-81
2022/10/24 03:15:58;;;;;;;3.03;1.27;;;16.20;99.90;;;;;;5111520;27;20714;-81
2022/10/24 03:18:25;;;;;;;1.00;1.00;;;15.70;99.90;;;;;;5129759;27;20670;-82
2022/10/24 03:20:52;;;;;;;1.13;0.93;;;15.70;99.90;;;;;;5129319;27;20626;-81
2022/10/24 03:23:20;;;;;;;1.73;0.97;;;15.80;99.90;;;;;;5129514;27;20660;-81
2022/10/24 03:25:47;;;;;;;0.70;0.70;;;15.80;99.90;;;;;;5130071;27;20672;-81
2022/10/24 03:28:14;;;;;;;1.07;0.50;;;15.70;99.90;;;;;;5129090;27;20714;-81
2022/10/24 03:30:41;;;;;;;2.80;0.80;;;15.70;99.90;;;;;;5129097;27;20762;-81
2022/10/24 03:33:08;;;;;;;1.37;0.70;;;15.70;99.90;;;;;;5129527;27;20718;-82
2022/10/24 03:35:35;;;;;;;1.20;1.10;;;15.70;99.90;;;;;;5129298;27;20640;-82
2022/10/24 03:38:03;;;;;;;2.17;0.90;;;15.70;99.90;;;;;;5129126;27;20614;-81
2022/10/24 03:40:31;;;;;;;2.37;1.30;;;15.80;99.90;;;;;;5129438;27;20725;-84
2022/10/24 03:42:58;;;;;;;1.50;1.40;;;15.80;99.90;;;;;;5128891;28;20711;-83
2022/10/24 03:45:25;;;;;;;2.23;0.70;;;16.30;99.90;;;;;;5129020;28;20660;-82
2022/10/24 03:47:51;;;;;;;2.70;1.73;;;15.80;99.90;;;;;;5128609;28;20603;-83
2022/10/24 03:50:18;;;;;;;0.50;0.50;;;15.90;99.90;;;;;;5129087;28;20650;-81
2022/10/24 03:52:45;;;;;;;1.53;1.43;;;16.30;99.90;;;;;;5128886;27;20718;-82
2022/10/24 03:55:13;;;;;;;0.77;0.60;;;15.90;99.90;;;;;;5128805;28;21003;-83
2022/10/24 03:57:41;;;;;;;0.70;0.70;;;15.80;99.90;;;;;;5114840;28;20727;-84
2022/10/24 04:00:09;;;;;;;6.03;1.20;;;15.90;99.90;;;;;;5128966;27;20703;-83
2022/10/24 04:02:36;;;;;;;1.63;1.53;;;15.80;99.90;;;;;;5137120;27;20607;-81
2022/10/24 04:05:03;;;;;;;1.00;0.67;;;15.80;99.90;;;;;;5119230;28;20624;-82
2022/10/24 04:07:29;;;;;;;1.73;1.20;;;15.70;99.90;;;;;;5108318;28;21353;-81
2022/10/24 04:09:56;;;;;;;1.43;0.90;;;15.80;99.90;;;;;;5108347;28;20670;-81
2022/10/24 04:12:24;;;;;;;2.60;0.77;;;15.80;99.90;;;;;;5108104;28;21165;-81
2022/10/24 04:14:52;;;;;;;1.70;0.90;;;15.80;99.90;;;;;;5109396;28;20639;-81
2022/10/24 04:17:19;;;;;;;1.67;1.00;;;15.70;99.90;;;;;;5126472;27;20671;-82
2022/10/24 04:19:46;;;;;;;1.00;0.90;;;15.60;99.90;;;;;;5140958;27;20630;-82
2022/10/24 04:22:13;;;;;;;1.23;1.13;;;15.70;99.90;;;;;;5141160;27;20611;-83
2022/10/24 04:24:40;;;;;;;2.57;0.77;;;14.00;99.90;;;;;;5132517;27;20603;-83
2022/10/24 04:27:07;;;;;;;0.87;0.83;;;15.70;99.90;;;;;;5133061;27;20603;-83
2022/10/24 04:29:35;;;;;;;3.47;0.60;;;15.60;99.90;;;;;;5132911;27;21152;-84
2022/10/24 04:32:04;;;;;;;2.73;0.70;;;15.70;99.90;;;;;;5143119;27;21273;-83
2022/10/24 04:34:37;;;;;;;0.70;0.60;;;15.60;99.90;;;;;;5141575;27;20615;-85
2022/10/24 04:37:05;;;;;;;0.70;0.63;;;;;;;;;;5140060;27;20599;-85
2022/10/24 04:39:32;;;;;;;1.97;1.50;;;15.60;99.90;;;;;;5141447;27;21367;-83
2022/10/24 04:42:01;;;;;;;3.40;1.37;;;15.60;99.90;;;;;;5142951;27;20962;-85
2022/10/24 04:44:28;;;;;;;2.40;0.80;;;;;;;;;;5142821;27;20758;-84
2022/10/24 04:46:55;;;;;;;1.50;0.63;;;15.70;99.90;;;;;;5138335;27;20615;-83
2022/10/24 04:49:23;;;;;;;4.67;0.93;;;15.60;99.90;;;;;;5129190;27;20662;-83
2022/10/24 04:51:50;;;;;;;1.93;0.97;;;;;;;;;;5130960;27;21276;-83
2022/10/24 04:54:17;;;;;;;0.60;0.60;;;15.60;99.90;;;;;;5130875;27;20654;-83
2022/10/24 04:56:44;;;;;;;0.70;0.70;;;15.60;99.90;;;;;;5125026;27;20659;-83
2022/10/24 04:59:11;;;;;;;3.23;1.23;;;15.60;99.90;;;;;;5119979;27;20705;-83
2022/10/24 05:01:38;;;;;;;4.53;0.83;;;15.70;99.90;;;;;;5130554;27;20630;-84
2022/10/24 05:04:05;;;;;;;5.70;0.90;;;15.60;99.90;;;;;;5131621;27;20650;-83
2022/10/24 05:06:33;;;;;;;3.60;1.10;;;15.60;99.90;;;;;;5131113;27;20638;-84
2022/10/24 05:09:00;;;;;;;2.97;1.90;;;15.60;99.90;;;;;;5131617;27;20623;-84
2022/10/24 05:11:27;;;;;;;1.30;1.20;;;15.50;99.90;;;;;;5131888;27;21059;-82
2022/10/24 05:13:53;;;;;;;2.63;0.73;;;15.60;99.90;;;;;;5131357;27;20606;-84
2022/10/24 05:16:20;;;;;;;2.23;0.90;;;15.70;99.90;;;;;;5131320;27;20619;-84
2022/10/24 05:18:47;;;;;;;0.60;0.60;;;15.80;99.90;;;;;;5131342;27;20602;-83
2022/10/24 05:21:14;;;;;;;0.60;0.50;;;15.80;99.90;;;;;;5131555;27;20611;-82
2022/10/24 05:23:42;;;;;;;5.50;0.93;;;15.90;99.90;;;;;;5131891;27;20631;-83
2022/10/24 05:26:09;;;;;;;1.57;0.60;;;15.80;99.90;;;;;;5131263;27;21232;-83
2022/10/24 05:28:36;;;;;;;1.23;0.60;;;16.00;99.90;;;;;;5131214;27;20671;-82
2022/10/24 05:31:03;;;;;;;0.83;0.50;;;15.90;99.90;;;;;;5131036;27;20738;-83
2022/10/24 05:33:30;;;;;;;1.10;0.87;;;15.90;99.90;;;;;;5131326;27;21191;-83
2022/10/24 05:35:57;;;;;;;1.37;0.70;;;15.80;99.90;;;;;;5131401;27;20660;-81
2022/10/24 05:38:24;;;;;;;0.70;0.70;;;;;;;;;;5131253;27;20621;-82
2022/10/24 05:40:52;;;;;;;0.60;0.60;;;15.90;99.90;;;;;;5131204;27;20621;-82
2022/10/24 05:43:19;;;;;;;0.60;0.50;;;16.00;99.90;;;;;;5131687;27;20626;-82
2022/10/24 05:45:48;;;;;;;0.83;0.83;;;15.90;99.90;;;;;;5130735;27;20683;-82
2022/10/24 05:48:15;;;;;;;0.73;0.70;;;15.90;99.90;;;;;;5131055;27;20611;-83
2022/10/24 05:50:42;;;;;;;1.60;0.73;;;15.90;99.90;;;;;;5130950;27;20654;-82
2022/10/24 05:53:09;;;;;;;0.70;0.70;;;15.80;99.90;;;;;;5131176;27;20711;-82
2022/10/24 05:55:36;;;;;;;1.23;0.90;;;15.90;99.90;;;;;;5130745;27;21325;-83
2022/10/24 05:58:05;;;;;;;1.33;0.50;;;16.00;99.90;;;;;;5130414;27;20626;-82
2022/10/24 06:00:33;;;;;;;0.70;0.53;;;15.90;99.90;;;;;;5130062;27;20615;-82
2022/10/24 06:03:00;;;;;;;0.60;0.60;;;15.90;99.90;;;;;;5131225;27;20640;-82
2022/10/24 06:05:27;;;;;;;4.83;0.73;;;15.90;99.90;;;;;;5130264;27;20618;-83
2022/10/24 06:07:54;;;;;;;0.80;0.60;;;;;;;;;;5130432;27;21160;-83
2022/10/24 06:10:22;;;;;;;2.33;0.80;;;15.90;99.90;;;;;;5130301;27;20638;-83
2022/10/24 06:12:49;;;;;;;0.70;0.50;;;15.90;99.90;;;;;;5130571;27;20671;-83
2022/10/24 06:15:17;;;;;;;0.60;0.40;;;15.90;99.90;;;;;;5130283;27;20717;-82
2022/10/24 06:17:44;;;;;;;0.93;0.50;;;15.90;99.90;;;;;;5129691;27;21319;-82
2022/10/24 06:20:11;;;;;;;4.23;1.07;;;16.00;99.90;;;;;;5130455;27;20654;-81
2022/10/24 06:22:38;;;;;;;0.63;0.60;;;16.00;99.90;;;;;;5129126;27;20642;-83
2022/10/24 06:25:06;;;;;;;0.60;0.60;;;15.90;99.90;;;;;;5130641;27;20611;-84
2022/10/24 06:27:32;;;;;;;0.87;0.87;;;16.00;99.90;;;;;;5130166;27;20638;-84
2022/10/24 06:29:59;;;;;;;1.50;0.90;;;15.80;99.90;;;;;;5130241;27;20639;-83
2022/10/24 06:32:28;;;;;;;0.50;0.40;;;15.90;99.90;;;;;;5130007;27;21283;-83
2022/10/24 06:34:54;;;;;;;0.53;0.53;;;15.90;99.90;;;;;;5130625;27;20611;-84
2022/10/24 06:37:21;;;;;;;0.73;0.50;;;15.80;99.90;;;;;;5129039;27;20722;-83
2022/10/24 06:39:48;;;;;;;2.10;0.93;;;;;;;;;;5129620;27;20946;-83
2022/10/24 06:42:15;;;;;;;3.03;0.60;;;15.60;99.90;;;;;;5120278;27;21156;-85
2022/10/24 06:44:42;;;;;;;0.67;0.60;;;15.80;99.90;;;;;;5111186;27;20628;-84
2022/10/24 06:47:09;;;;;;;1.80;1.03;;;15.80;99.90;;;;;;5127007;27;20611;-83
2022/10/24 06:49:38;;;;;;;0.80;0.80;;;15.70;99.90;;;;;;5129278;27;21066;-82
2022/10/24 06:52:05;;;;;;;2.47;0.70;;;15.70;99.90;;;;;;5128779;27;20661;-83
2022/10/24 06:54:32;;;;;;;2.77;0.80;;;15.80;99.90;;;;;;5129906;27;20666;-83
2022/10/24 06:56:59;;;;;;;0.50;0.50;;;15.80;99.90;;;;;;5122240;27;20630;-84
2022/10/24 06:59:26;;;;;;;2.20;1.20;;;15.80;99.90;;;;;;5115506;27;20658;-84
2022/10/24 07:01:53;;;;;;;0.90;0.80;;;15.70;99.90;;;;;;5129739;27;20671;-84
2022/10/24 07:04:20;;;;;;;0.50;0.50;;;15.60;99.90;;;;;;5129712;27;20626;-84
2022/10/24 07:06:48;;;;;;;1.60;1.30;;;15.60;99.90;;;;;;5129410;27;20623;-83
2022/10/24 07:09:16;;;;;;;2.10;1.10;;;15.60;99.90;;;;;;5129295;27;20617;-83
2022/10/24 07:11:43;;;;;;;2.10;1.57;;;;;;;;;;5129552;27;20667;-84
2022/10/24 07:14:10;;;;;;;1.23;0.83;;;15.50;99.90;;;;;;5129077;27;20676;-83
2022/10/24 07:16:37;;;;;;;2.53;1.00;;;15.50;99.90;;;;;;5129718;27;20611;-83
2022/10/24 07:19:05;;;;;;;2.30;1.07;;;15.50;99.90;;;;;;5129869;27;20663;-84
2022/10/24 07:21:33;;;;;;;1.33;0.60;;;15.50;99.90;;;;;;5129751;27;21231;-84
2022/10/24 07:24:02;;;;;;;0.80;0.80;;;15.60;99.90;;;;;;5129386;27;20676;-83
2022/10/24 07:26:29;;;;;;;1.40;0.80;;;15.50;99.90;;;;;;5129297;27;21071;-82
2022/10/24 07:28:59;;;;;;;1.23;0.90;;;15.50;99.90;;;;;;5129154;27;20642;-83
2022/10/24 07:31:30;;;;;;;0.80;0.80;;;15.50;99.90;;;;;;5128922;27;20654;-83
2022/10/24 07:33:58;;;;;;;0.50;0.43;;;15.80;99.90;;;;;;5129145;27;20721;-85
2022/10/24 07:36:29;;;;;;;0.80;0.63;;;15.50;99.90;;;;;;5128384;27;20647;-83
2022/10/24 07:38:57;;;;;;;0.80;0.80;;;15.50;99.90;;;;;;5129096;27;20599;-84
2022/10/24 07:41:27;;;;;;;0.67;0.67;;;15.60;99.90;;;;;;5128968;27;20622;-84
2022/10/24 07:43:54;;;;;;;1.80;0.97;;;15.70;99.90;;;;;;5128879;27;20607;-83
2022/10/24 07:46:22;;;;;;;0.80;0.60;;;15.60;99.90;;;;;;5128317;28;21093;-82
2022/10/24 07:48:49;;;;;;;1.20;1.03;;;15.70;99.90;;;;;;5128361;27;20637;-83
2022/10/24 07:51:17;;;;;;;1.33;1.07;;;15.80;99.90;;;;;;5132118;27;20642;-83
2022/10/24 07:53:44;;;;;;;1.80;0.80;;;15.80;99.90;;;;;;5133474;27;20618;-82
2022/10/24 07:56:14;;;;;;;1.33;0.93;;;15.70;99.90;;;;;;5132723;27;20626;-83
2022/10/24 07:58:43;;;;;;;1.43;0.93;;;15.70;99.90;;;;;;5132899;27;20629;-83
2022/10/24 08:01:12;;;;;;;0.87;0.83;;;15.80;99.90;;;;;;5133377;27;20607;-82
2022/10/24 08:03:39;;;;;;;0.90;0.90;;;15.80;99.90;;;;;;5133469;27;20614;-83
2022/10/24 08:06:08;;;;;;;1.77;1.60;;;15.90;99.90;;;;;;5133285;27;20679;-83
2022/10/24 08:08:36;;;;;;;1.53;0.60;;;15.90;99.90;;;;;;5133138;27;21160;-83
2022/10/24 08:11:07;;;;;;;1.53;0.53;;;15.80;99.90;;;;;;5132726;27;20646;-83
2022/10/24 08:13:34;;;;;;;0.77;0.77;;;;;;;;;;5133015;27;20622;-82
2022/10/24 08:16:05;;;;;;;1.80;1.23;;;15.80;99.90;;;;;;5132766;27;20709;-82
2022/10/24 08:18:32;;;;;;;0.70;0.57;;;;;;;;;;5131880;27;20646;-84
2022/10/24 08:21:00;;;;;;;1.27;1.03;;;16.00;99.90;;;;;;5132348;27;20637;-84
2022/10/24 08:23:28;;;;;;;1.87;0.90;;;15.90;99.90;;;;;;5132950;27;20611;-84
2022/10/24 08:25:55;;;;;;;1.17;1.07;;;15.80;99.90;;;;;;5133005;27;20647;-85
2022/10/24 08:28:22;;;;;;;1.20;0.70;;;15.60;99.90;;;;;;5132272;27;20997;-85
2022/10/24 08:30:56;;;;;;;0.80;0.70;;;15.50;99.90;;;;;;5133012;27;20953;-84
2022/10/24 08:33:24;;;;;;;0.57;0.57;;;15.40;99.90;;;;;;5133106;27;20611;-84
2022/10/24 08:35:52;;;;;;;0.60;0.60;;;;;;;;;;5132951;27;20618;-83
2022/10/24 08:38:19;;;;;;;0.73;0.73;;;15.40;99.90;;;;;;5132619;27;20707;-84
2022/10/24 08:40:48;;;;;;;0.67;0.60;;;15.40;99.90;;;;;;5132396;27;20663;-84
2022/10/24 08:43:17;;;;;;;1.10;0.87;;;15.50;99.90;;;;;;5132617;27;20641;-84
2022/10/24 08:45:52;;;;;;;0.80;0.70;;;15.60;99.90;;;;;;5132704;27;20682;-84
2022/10/24 08:48:26;;;;;;;2.73;1.00;;;15.60;99.90;;;;;;5132124;27;20699;-83
2022/10/24 08:51:02;;;;;;;0.70;0.67;;;15.60;99.90;;;;;;5132107;27;20618;-82
2022/10/24 08:53:31;;;;;;;4.10;0.87;;;15.60;99.90;;;;;;5131796;27;20611;-84
2022/10/24 08:56:00;;;;;;;0.97;0.80;;;15.60;99.90;;;;;;5132208;27;20694;-85
2022/10/24 08:58:30;;;;;;;0.60;0.60;;;15.60;99.90;;;;;;5131368;27;20699;-83
2022/10/24 09:01:00;;;;;;;0.90;0.60;;;15.80;99.90;;;;;;5114727;27;21167;-84
2022/10/24 09:03:33;;;;;;;1.03;0.87;;;15.80;99.90;;;;;;5111897;27;20611;-84
2022/10/24 09:06:03;;;;;;;1.10;1.00;;;16.00;99.90;;;;;;5111249;28;20623;-84
2022/10/24 09:08:34;;;;;;;0.60;0.50;;;16.00;99.90;;;;;;5111231;27;20628;-85
2022/10/24 09:11:04;;;;;;;0.60;0.60;;;15.90;99.90;;;;;;5112020;28;20620;-83
2022/10/24 09:13:33;;;;;;;1.10;0.80;;;15.80;99.90;;;;;;5130050;27;20619;-85
2022/10/24 09:16:01;;;;;;;0.73;0.50;;;15.80;99.90;;;;;;5131085;27;21054;-82
2022/10/24 09:18:34;;;;;;;1.43;1.33;;;15.80;99.90;;;;;;5130761;27;20628;-82
2022/10/24 09:21:02;;;;;;;0.60;0.33;;;15.80;99.90;;;;;;5131590;27;20630;-84
2022/10/24 09:23:32;;;;;;;2.40;1.83;;;15.70;99.90;;;;;;5131787;27;20664;-83
2022/10/24 09:25:59;;;;;;;1.17;1.07;;;15.80;99.90;;;;;;5131450;27;20618;-82
2022/10/24 09:28:26;;;;;;;0.70;0.50;;;15.70;99.90;;;;;;5131117;27;21095;-83
2022/10/24 09:30:53;;;;;;;0.77;0.70;;;15.70;99.90;;;;;;5131410;27;20774;-82
2022/10/24 09:33:27;;;;;;;1.40;0.90;;;16.20;99.90;;;;;;5125083;27;20651;-82
2022/10/24 09:35:58;;;;;;;1.13;0.87;;;15.80;99.90;;;;;;5111265;28;20592;-84
2022/10/24 09:38:32;;;;;;;1.43;0.60;;;15.80;99.90;;;;;;5110718;28;21207;-86
2022/10/24 09:41:02;;;;;;;1.30;1.17;;;15.70;99.90;;;;;;5110787;28;20643;-82
2022/10/24 09:43:39;;;;;;;1.90;0.83;;;15.70;99.90;;;;;;5110286;28;20622;-83
2022/10/24 09:46:09;;;;;;;4.63;1.00;;;15.70;99.90;;;;;;5110797;28;20655;-83
2022/10/24 09:48:54;;;;;;;1.10;0.87;;;15.70;99.90;;;;;;5110560;28;20632;-84
2022/10/24 09:51:26;;;;;;;4.10;1.27;;;15.70;99.90;;;;;;5110241;28;20635;-84
2022/10/24 09:54:06;;;;;;;1.00;0.87;;;15.60;99.90;;;;;;5109839;28;20616;-84
2022/10/24 09:56:37;;;;;;;0.87;0.83;;;15.60;99.90;;;;;;5114169;27;20637;-83
2022/10/24 09:59:33;;;;;;;0.73;0.73;;;15.70;99.90;;;;;;5131194;27;21232;-84
2022/10/24 10:02:17;;;;;;;1.37;1.27;;;15.70;99.90;;;;;;5110425;28;20619;-85
2022/10/24 10:04:45;;;;;;;1.07;1.00;;;15.70;99.90;;;;;;5110311;28;20611;-83
2022/10/24 10:07:17;;;;;;;2.40;0.70;;;15.70;99.90;;;;;;5110359;27;20600;-83
2022/10/24 10:09:51;;;;;;;1.50;1.10;;;15.70;99.90;;;;;;5114162;27;20634;-84
2022/10/24 10:12:29;;;;;;;1.40;1.10;;;15.80;99.90;;;;;;5119775;27;20673;-83
2022/10/24 10:14:56;;;;;;;2.17;0.83;;;15.80;99.90;;;;;;5116961;27;20692;-84
2022/10/24 10:17:26;;;;;;;0.90;0.90;;;15.90;99.90;;;;;;5109903;28;20616;-83
2022/10/24 10:19:54;;;;;;;1.07;0.67;;;15.90;99.90;;;;;;5109740;28;20681;-85
2022/10/24 10:22:26;;;;;;;0.77;0.77;;;15.90;99.90;;;;;;5110191;28;20607;-83
2022/10/24 10:24:53;;;;;;;1.80;0.50;;;15.90;99.90;;;;;;5109879;28;21249;-83
2022/10/24 10:27:34;;;;;;;0.50;0.50;;;16.00;99.90;;;;;;5124709;27;20627;-83
2022/10/24 10:30:14;;;;;;;1.37;1.27;;;16.10;99.90;;;;;;5113713;27;20614;-82
2022/10/24 10:32:47;;;;;;;0.50;0.50;;;16.10;99.90;;;;;;5111662;27;20667;-82
2022/10/24 10:35:19;;;;;;;0.70;0.70;;;16.10;99.90;;;;;;5130554;27;20725;-82
2022/10/24 10:37:50;;;;;;;1.43;1.07;;;16.20;99.90;;;;;;5130320;27;20706;-83
2022/10/24 10:40:25;;;;;;;3.43;1.00;;;16.50;99.90;;;;;;5130566;27;20954;-83
2022/10/24 10:43:18;;;;;;;0.77;0.77;;;16.20;99.90;;;;;;5130472;27;21007;-82
2022/10/24 10:45:47;;;;;;;0.77;0.53;;;16.20;99.90;;;;;;5124570;27;20616;-81
2022/10/24 10:48:36;;;;;;;0.70;0.50;;;16.10;99.90;;;;;;5108616;28;20677;-82
2022/10/24 10:51:11;;;;;;;1.77;0.73;;;16.20;99.90;;;;;;5108882;28;20658;-81
2022/10/24 10:53:47;;;;;;;0.40;0.40;;;16.20;99.90;;;;;;5109032;28;20712;-82
2022/10/24 10:56:27;;;;;;;0.80;0.80;;;16.30;99.90;;;;;;5109861;27;21321;-82
2022/10/24 10:59:04;;;;;;;2.70;0.70;;;16.20;99.90;;;;;;5129721;27;20623;-82
2022/10/24 11:01:41;;;;;;;0.37;0.37;;;16.10;99.90;;;;;;5111798;27;20715;-82
2022/10/24 11:04:18;;;;;;;0.50;0.50;;;16.20;99.90;;;;;;5088784;28;20633;-83
2022/10/24 11:06:52;;;;;;;1.27;0.77;;;16.20;99.90;;;;;;5088556;28;20707;-83
2022/10/24 11:09:34;;;;;;;1.20;1.10;;;16.20;99.90;;;;;;5088800;28;20685;-83
2022/10/24 11:12:07;;;;;;;0.60;0.37;;;16.20;99.90;;;;;;5099436;28;21225;-83
2022/10/24 11:14:37;;;;;;;1.00;0.77;;;16.20;99.90;;;;;;5101599;28;20629;-83
2022/10/24 11:17:13;;;;;;;1.60;0.70;;;16.20;99.90;;;;;;5105288;28;20619;-82
2022/10/24 11:19:47;;;;;;;0.70;0.70;;;15.90;99.90;;;;;;5105070;28;20608;-83
2022/10/24 11:22:22;;;;;;;1.00;0.60;;;16.20;99.90;;;;;;5091979;28;21059;-82
2022/10/24 11:24:57;;;;;;;0.40;0.40;;;16.20;99.90;;;;;;5108673;28;20630;-83
2022/10/24 11:27:28;;;;;;;0.50;0.50;;;16.10;99.90;;;;;;5108099;28;20645;-83
2022/10/24 11:30:00;;;;;;;0.50;0.40;;;16.20;99.90;;;;;;5109211;28;20619;-83
2022/10/24 11:32:34;;;;;;;0.97;0.63;;;16.20;99.90;;;;;;5108688;28;20639;-83
2022/10/24 11:35:07;;;;;;;3.60;0.83;;;16.10;99.90;;;;;;5108755;28;20611;-83
2022/10/24 11:37:38;;;;;;;0.50;0.30;;;16.10;99.90;;;;;;5108210;28;20612;-82
2022/10/24 11:40:12;;;;;;;1.63;0.90;;;16.30;99.90;;;;;;5108195;28;21069;-82
2022/10/24 11:42:46;;;;;;;0.50;0.37;;;16.00;99.90;;;;;;5109003;27;20631;-83
2022/10/24 11:45:15;;;;;;;0.37;0.37;;;16.20;99.90;;;;;;5112501;27;20627;-83
2022/10/24 11:47:52;;;;;;;0.50;0.43;;;16.20;99.90;;;;;;5117312;28;20666;-82
2022/10/24 11:50:25;;;;;;;1.00;0.50;;;16.20;99.90;;;;;;5116757;28;20684;-83
2022/10/24 11:52:55;;;;;;;0.40;0.20;;;16.20;99.90;;;;;;5108704;28;20675;-83
2022/10/24 11:55:30;;;;;;;0.50;0.50;;;16.30;99.90;;;;;;5108558;28;20627;-83
2022/10/24 11:57:59;;;;;;;0.43;0.40;;;16.20;99.90;;;;;;5108696;28;20635;-83
2022/10/24 12:00:30;;;;;;;0.67;0.67;;;16.20;99.90;;;;;;5099660;28;20707;-84
2022/10/24 12:03:22;;;;;;;1.33;0.77;;;16.10;99.90;;;;;;5087985;28;20616;-83
2022/10/24 12:06:16;;;;;;;1.17;0.60;;;16.20;99.90;;;;;;5088155;28;20632;-84
2022/10/24 12:09:14;;;;;;;0.70;0.53;;;16.20;99.90;;;;;;5088430;28;21417;-83
2022/10/24 12:12:02;;;;;;;0.67;0.53;;;16.20;99.90;;;;;;5088210;28;20597;-82
2022/10/24 12:14:56;;;;;;;0.60;0.60;;;16.10;99.90;;;;;;5087736;28;20609;-82
2022/10/24 12:17:45;;;;;;;1.57;0.70;;;16.20;99.90;;;;;;5102415;28;21173;-83
2022/10/24 12:20:15;;;;;;;1.57;0.43;;;16.20;99.90;;;;;;5096953;28;20735;-83
2022/10/24 12:22:44;;;;;;;0.57;0.40;;;16.20;99.90;;;;;;5095119;28;20619;-83
2022/10/24 12:25:22;;;;;;;0.53;0.53;;;16.20;99.90;;;;;;5108789;28;20649;-83
2022/10/24 12:27:56;;;;;;;0.50;0.50;;;16.20;99.90;;;;;;5107993;28;20627;-81
2022/10/24 12:30:25;;;;;;;1.07;0.67;;;16.20;99.90;;;;;;5108356;28;21179;-84
2022/10/24 12:32:56;;;;;;;4.03;1.23;;;16.20;99.90;;;;;;5107950;28;20664;-84
2022/10/24 12:35:46;;;;;;;0.80;0.60;;;16.30;99.90;;;;;;5109512;28;20647;-83
2022/10/24 12:39:07;;;;;;;0.60;0.60;;;16.30;99.90;;;;;;5111419;28;20616;-83
2022/10/24 12:41:40;;;;;;;0.63;0.33;;;16.20;99.90;;;;;;5112270;28;20618;-83
2022/10/24 12:44:43;;;;;;;2.50;0.50;;;16.20;99.90;;;;;;5111420;28;20704;-84
2022/10/24 12:47:29;;;;;;;0.63;0.40;;;16.20;99.90;;;;;;5112122;28;20619;-84
2022/10/24 12:49:57;;;;;;;1.27;0.53;;;16.30;99.90;;;;;;5110621;28;20675;-83
2022/10/24 12:53:02;;;;;;;0.60;0.60;;;16.30;99.90;;;;;;5111704;28;20716;-84
2022/10/24 12:55:51;;;;;;;1.23;0.50;;;16.30;99.90;;;;;;5102341;28;20647;-83
2022/10/24 12:58:24;;;;;;;0.40;0.40;;;16.20;99.90;;;;;;5094946;28;20621;-84
2022/10/24 13:00:55;;;;;;;0.40;0.30;;;16.30;99.90;;;;;;5112420;28;20631;-84
2022/10/24 13:03:37;;;;;;;0.60;0.40;;;16.60;99.90;;;;;;5111361;28;20607;-85
2022/10/24 13:06:08;;;;;;;0.50;0.50;;;16.30;99.90;;;;;;5112022;28;20615;-84
2022/10/24 13:08:49;;;;;;;0.50;0.50;;;16.40;99.90;;;;;;5111614;28;20623;-84
2022/10/24 13:11:33;;;;;;;0.60;0.30;;;16.40;99.90;;;;;;5111773;28;20635;-84